sensor_id;sensor_type;location;lat;lon;timestamp;P1;durP1;ratioP1;P2;durP2;ratioP2
9823;SDS011;4951;50.778;7.196;2024-03-25T00:00:46;12.33;;;4.50;;
9823;SDS011;4951;50.778;7.196;2024-03-25T00:03:12;13.27;;;4.17;;
9823;SDS011;4951;50.778;7.196;2024-03-25T00:05:39;13.67;;;5.03;;
9823;SDS011;4951;50.778;7.196;2024-03-25T00:08:05;13.10;;;4.90;;
9823;SDS011;4951;50.778;7.196;2024-03-25T00:10:33;14.77;;;5.00;;
9823;SDS011;4951;50.778;7.196;2024-03-25T00:12:59;12.83;;;4.27;;
9823;SDS011;4951;50.778;7.196;2024-03-25T00:15:26;15.63;;;4.27;;
9823;SDS011;4951;50.778;7.196;2024-03-25T00:17:57;13.13;;;4.20;;
9823;SDS011;4951;50.778;7.196;2024-03-25T00:20:24;14.00;;;4.30;;
9823;SDS011;4951;50.778;7.196;2024-03-25T00:22:50;11.70;;;4.10;;
9823;SDS011;4951;50.778;7.196;2024-03-25T00:25:18;10.07;;;4.20;;
9823;SDS011;4951;50.778;7.196;2024-03-25T00:27:44;12.70;;;4.13;;
9823;SDS011;4951;50.778;7.196;2024-03-25T00:30:11;9.73;;;4.00;;
9823;SDS011;4951;50.778;7.196;2024-03-25T00:32:38;15.43;;;4.30;;
9823;SDS011;4951;50.778;7.196;2024-03-25T00:35:08;11.17;;;3.97;;
9823;SDS011;4951;50.778;7.196;2024-03-25T00:37:34;14.67;;;4.37;;
9823;SDS011;4951;50.778;7.196;2024-03-25T00:40:02;10.13;;;3.77;;
9823;SDS011;4951;50.778;7.196;2024-03-25T00:42:29;15.10;;;3.67;;
9823;SDS011;4951;50.778;7.196;2024-03-25T00:44:56;13.77;;;4.23;;
9823;SDS011;4951;50.778;7.196;2024-03-25T00:47:22;12.77;;;4.07;;
9823;SDS011;4951;50.778;7.196;2024-03-25T00:49:50;14.20;;;4.20;;
9823;SDS011;4951;50.778;7.196;2024-03-25T00:52:17;14.93;;;4.40;;
9823;SDS011;4951;50.778;7.196;2024-03-25T00:54:45;12.20;;;3.80;;
9823;SDS011;4951;50.778;7.196;2024-03-25T00:57:11;9.93;;;3.50;;
9823;SDS011;4951;50.778;7.196;2024-03-25T00:59:38;14.70;;;4.10;;
9823;SDS011;4951;50.778;7.196;2024-03-25T01:02:04;14.10;;;4.80;;
9823;SDS011;4951;50.778;7.196;2024-03-25T01:04:33;13.37;;;4.33;;
9823;SDS011;4951;50.778;7.196;2024-03-25T01:06:59;12.60;;;4.20;;
9823;SDS011;4951;50.778;7.196;2024-03-25T01:09:28;13.47;;;4.33;;
9823;SDS011;4951;50.778;7.196;2024-03-25T01:11:55;16.20;;;4.43;;
9823;SDS011;4951;50.778;7.196;2024-03-25T01:14:22;13.73;;;4.17;;
9823;SDS011;4951;50.778;7.196;2024-03-25T01:16:48;13.57;;;4.50;;
9823;SDS011;4951;50.778;7.196;2024-03-25T01:19:15;16.50;;;4.50;;
9823;SDS011;4951;50.778;7.196;2024-03-25T01:21:42;14.33;;;4.77;;
9823;SDS011;4951;50.778;7.196;2024-03-25T01:24:09;12.50;;;4.90;;
9823;SDS011;4951;50.778;7.196;2024-03-25T01:26:36;12.63;;;4.27;;
9823;SDS011;4951;50.778;7.196;2024-03-25T01:29:03;14.23;;;4.27;;
9823;SDS011;4951;50.778;7.196;2024-03-25T01:31:29;18.27;;;4.90;;
9823;SDS011;4951;50.778;7.196;2024-03-25T01:33:57;17.93;;;4.50;;
9823;SDS011;4951;50.778;7.196;2024-03-25T01:36:23;14.17;;;4.47;;
9823;SDS011;4951;50.778;7.196;2024-03-25T01:38:51;19.87;;;4.37;;
9823;SDS011;4951;50.778;7.196;2024-03-25T01:41:21;13.97;;;5.07;;
9823;SDS011;4951;50.778;7.196;2024-03-25T01:43:50;14.20;;;4.57;;
9823;SDS011;4951;50.778;7.196;2024-03-25T01:46:16;15.47;;;4.90;;
9823;SDS011;4951;50.778;7.196;2024-03-25T01:48:44;14.17;;;5.47;;
9823;SDS011;4951;50.778;7.196;2024-03-25T01:51:11;16.17;;;4.63;;
9823;SDS011;4951;50.778;7.196;2024-03-25T01:53:41;15.90;;;4.80;;
9823;SDS011;4951;50.778;7.196;2024-03-25T01:56:07;18.77;;;5.03;;
9823;SDS011;4951;50.778;7.196;2024-03-25T01:58:36;15.43;;;5.33;;
9823;SDS011;4951;50.778;7.196;2024-03-25T02:01:04;15.63;;;4.40;;
9823;SDS011;4951;50.778;7.196;2024-03-25T02:03:34;17.17;;;5.37;;
9823;SDS011;4951;50.778;7.196;2024-03-25T02:06:01;10.90;;;4.17;;
9823;SDS011;4951;50.778;7.196;2024-03-25T02:08:30;13.97;;;4.00;;
9823;SDS011;4951;50.778;7.196;2024-03-25T02:10:57;15.67;;;4.57;;
9823;SDS011;4951;50.778;7.196;2024-03-25T02:13:25;14.30;;;4.20;;
9823;SDS011;4951;50.778;7.196;2024-03-25T02:15:51;14.07;;;3.90;;
9823;SDS011;4951;50.778;7.196;2024-03-25T02:18:21;17.13;;;4.10;;
9823;SDS011;4951;50.778;7.196;2024-03-25T02:20:47;12.37;;;4.50;;
9823;SDS011;4951;50.778;7.196;2024-03-25T02:23:14;15.63;;;4.00;;
9823;SDS011;4951;50.778;7.196;2024-03-25T02:25:42;17.30;;;4.60;;
9823;SDS011;4951;50.778;7.196;2024-03-25T02:28:10;17.23;;;3.93;;
9823;SDS011;4951;50.778;7.196;2024-03-25T02:30:36;15.80;;;4.50;;
9823;SDS011;4951;50.778;7.196;2024-03-25T02:33:05;17.87;;;4.60;;
9823;SDS011;4951;50.778;7.196;2024-03-25T02:35:32;13.60;;;4.20;;
9823;SDS011;4951;50.778;7.196;2024-03-25T02:37:59;20.67;;;4.43;;
9823;SDS011;4951;50.778;7.196;2024-03-25T02:40:26;17.30;;;4.20;;
9823;SDS011;4951;50.778;7.196;2024-03-25T02:42:53;13.43;;;3.40;;
9823;SDS011;4951;50.778;7.196;2024-03-25T02:45:20;15.77;;;4.63;;
9823;SDS011;4951;50.778;7.196;2024-03-25T02:47:48;16.00;;;4.40;;
9823;SDS011;4951;50.778;7.196;2024-03-25T02:50:15;14.87;;;4.60;;
9823;SDS011;4951;50.778;7.196;2024-03-25T02:52:42;16.60;;;3.80;;
9823;SDS011;4951;50.778;7.196;2024-03-25T02:55:08;15.20;;;4.00;;
9823;SDS011;4951;50.778;7.196;2024-03-25T02:57:36;15.30;;;3.73;;
9823;SDS011;4951;50.778;7.196;2024-03-25T03:00:02;15.03;;;4.40;;
9823;SDS011;4951;50.778;7.196;2024-03-25T03:02:31;18.90;;;4.10;;
9823;SDS011;4951;50.778;7.196;2024-03-25T03:04:57;13.83;;;4.40;;
9823;SDS011;4951;50.778;7.196;2024-03-25T03:07:24;20.50;;;4.47;;
9823;SDS011;4951;50.778;7.196;2024-03-25T03:09:51;17.50;;;4.20;;
9823;SDS011;4951;50.778;7.196;2024-03-25T03:12:18;17.10;;;4.40;;
9823;SDS011;4951;50.778;7.196;2024-03-25T03:14:44;17.70;;;4.27;;
9823;SDS011;4951;50.778;7.196;2024-03-25T03:17:11;15.00;;;3.90;;
9823;SDS011;4951;50.778;7.196;2024-03-25T03:19:38;21.03;;;4.10;;
9823;SDS011;4951;50.778;7.196;2024-03-25T03:22:06;15.53;;;4.57;;
9823;SDS011;4951;50.778;7.196;2024-03-25T03:24:32;14.87;;;4.33;;
9823;SDS011;4951;50.778;7.196;2024-03-25T03:27:00;20.57;;;4.37;;
9823;SDS011;4951;50.778;7.196;2024-03-25T03:29:26;12.77;;;4.23;;
9823;SDS011;4951;50.778;7.196;2024-03-25T03:31:53;18.90;;;4.03;;
9823;SDS011;4951;50.778;7.196;2024-03-25T03:34:19;12.77;;;4.30;;
9823;SDS011;4951;50.778;7.196;2024-03-25T03:36:48;15.67;;;4.27;;
9823;SDS011;4951;50.778;7.196;2024-03-25T03:39:14;15.90;;;4.50;;
9823;SDS011;4951;50.778;7.196;2024-03-25T03:41:42;19.43;;;4.63;;
9823;SDS011;4951;50.778;7.196;2024-03-25T03:44:09;12.23;;;4.30;;
9823;SDS011;4951;50.778;7.196;2024-03-25T03:46:37;14.20;;;3.57;;
9823;SDS011;4951;50.778;7.196;2024-03-25T03:49:03;13.93;;;3.97;;
9823;SDS011;4951;50.778;7.196;2024-03-25T03:51:32;14.87;;;3.97;;
9823;SDS011;4951;50.778;7.196;2024-03-25T03:53:59;19.27;;;4.17;;
9823;SDS011;4951;50.778;7.196;2024-03-25T03:56:29;14.57;;;4.77;;
9823;SDS011;4951;50.778;7.196;2024-03-25T03:58:56;20.93;;;4.37;;
9823;SDS011;4951;50.778;7.196;2024-03-25T04:01:23;14.30;;;4.30;;
9823;SDS011;4951;50.778;7.196;2024-03-25T04:03:49;20.13;;;4.80;;
9823;SDS011;4951;50.778;7.196;2024-03-25T04:06:17;15.43;;;4.17;;
9823;SDS011;4951;50.778;7.196;2024-03-25T04:08:43;11.33;;;3.50;;
9823;SDS011;4951;50.778;7.196;2024-03-25T04:11:11;19.57;;;4.73;;
9823;SDS011;4951;50.778;7.196;2024-03-25T04:13:37;12.93;;;4.30;;
9823;SDS011;4951;50.778;7.196;2024-03-25T04:16:05;14.70;;;4.43;;
9823;SDS011;4951;50.778;7.196;2024-03-25T04:18:32;18.67;;;4.10;;
9823;SDS011;4951;50.778;7.196;2024-03-25T04:21:00;14.77;;;4.13;;
9823;SDS011;4951;50.778;7.196;2024-03-25T04:23:26;16.50;;;4.23;;
9823;SDS011;4951;50.778;7.196;2024-03-25T04:25:53;11.57;;;4.40;;
9823;SDS011;4951;50.778;7.196;2024-03-25T04:28:21;14.00;;;3.60;;
9823;SDS011;4951;50.778;7.196;2024-03-25T04:30:52;14.33;;;3.73;;
9823;SDS011;4951;50.778;7.196;2024-03-25T04:33:19;19.53;;;4.10;;
9823;SDS011;4951;50.778;7.196;2024-03-25T04:35:46;11.07;;;4.03;;
9823;SDS011;4951;50.778;7.196;2024-03-25T04:38:12;13.67;;;4.00;;
9823;SDS011;4951;50.778;7.196;2024-03-25T04:40:41;16.33;;;4.17;;
9823;SDS011;4951;50.778;7.196;2024-03-25T04:43:07;15.80;;;3.53;;
9823;SDS011;4951;50.778;7.196;2024-03-25T04:45:35;17.03;;;3.90;;
9823;SDS011;4951;50.778;7.196;2024-03-25T04:48:02;11.87;;;3.53;;
9823;SDS011;4951;50.778;7.196;2024-03-25T04:50:28;18.40;;;4.67;;
9823;SDS011;4951;50.778;7.196;2024-03-25T04:52:56;19.93;;;4.53;;
9823;SDS011;4951;50.778;7.196;2024-03-25T04:55:22;17.20;;;4.73;;
9823;SDS011;4951;50.778;7.196;2024-03-25T04:57:48;14.93;;;4.37;;
9823;SDS011;4951;50.778;7.196;2024-03-25T05:00:15;17.20;;;4.50;;
9823;SDS011;4951;50.778;7.196;2024-03-25T05:02:43;13.93;;;3.90;;
9823;SDS011;4951;50.778;7.196;2024-03-25T05:05:09;15.57;;;5.47;;
9823;SDS011;4951;50.778;7.196;2024-03-25T05:07:35;10.73;;;4.17;;
9823;SDS011;4951;50.778;7.196;2024-03-25T05:10:03;13.10;;;5.57;;
9823;SDS011;4951;50.778;7.196;2024-03-25T05:12:30;17.33;;;4.43;;
9823;SDS011;4951;50.778;7.196;2024-03-25T05:14:56;17.40;;;4.33;;
9823;SDS011;4951;50.778;7.196;2024-03-25T05:17:22;13.13;;;4.37;;
9823;SDS011;4951;50.778;7.196;2024-03-25T05:19:50;18.80;;;4.80;;
9823;SDS011;4951;50.778;7.196;2024-03-25T05:22:16;18.53;;;4.10;;
9823;SDS011;4951;50.778;7.196;2024-03-25T05:24:42;16.43;;;5.20;;
9823;SDS011;4951;50.778;7.196;2024-03-25T05:27:09;19.03;;;4.60;;
9823;SDS011;4951;50.778;7.196;2024-03-25T05:29:35;9.77;;;4.07;;
9823;SDS011;4951;50.778;7.196;2024-03-25T05:32:01;13.67;;;3.93;;
9823;SDS011;4951;50.778;7.196;2024-03-25T05:34:28;16.73;;;5.03;;
9823;SDS011;4951;50.778;7.196;2024-03-25T05:36:56;13.83;;;4.37;;
9823;SDS011;4951;50.778;7.196;2024-03-25T05:39:22;13.47;;;4.57;;
9823;SDS011;4951;50.778;7.196;2024-03-25T05:41:50;11.27;;;3.20;;
9823;SDS011;4951;50.778;7.196;2024-03-25T05:44:17;7.90;;;3.10;;
9823;SDS011;4951;50.778;7.196;2024-03-25T05:46:43;9.87;;;3.13;;
9823;SDS011;4951;50.778;7.196;2024-03-25T05:49:09;10.77;;;3.57;;
9823;SDS011;4951;50.778;7.196;2024-03-25T05:51:36;10.30;;;4.17;;
9823;SDS011;4951;50.778;7.196;2024-03-25T05:54:03;12.13;;;3.77;;
9823;SDS011;4951;50.778;7.196;2024-03-25T05:56:30;9.53;;;4.07;;
9823;SDS011;4951;50.778;7.196;2024-03-25T05:58:56;10.43;;;4.13;;
9823;SDS011;4951;50.778;7.196;2024-03-25T06:01:22;11.83;;;4.10;;
9823;SDS011;4951;50.778;7.196;2024-03-25T06:03:49;10.77;;;4.00;;
9823;SDS011;4951;50.778;7.196;2024-03-25T06:06:19;10.27;;;4.57;;
9823;SDS011;4951;50.778;7.196;2024-03-25T06:08:45;14.97;;;4.60;;
9823;SDS011;4951;50.778;7.196;2024-03-25T06:11:13;12.83;;;4.17;;
9823;SDS011;4951;50.778;7.196;2024-03-25T06:13:39;13.10;;;3.97;;
9823;SDS011;4951;50.778;7.196;2024-03-25T06:16:06;13.80;;;4.50;;
9823;SDS011;4951;50.778;7.196;2024-03-25T06:18:32;7.90;;;3.50;;
9823;SDS011;4951;50.778;7.196;2024-03-25T06:20:59;14.13;;;4.30;;
9823;SDS011;4951;50.778;7.196;2024-03-25T06:23:26;15.67;;;4.43;;
9823;SDS011;4951;50.778;7.196;2024-03-25T06:25:53;9.50;;;3.93;;
9823;SDS011;4951;50.778;7.196;2024-03-25T06:28:22;18.93;;;4.73;;
9823;SDS011;4951;50.778;7.196;2024-03-25T06:30:49;11.20;;;4.40;;
9823;SDS011;4951;50.778;7.196;2024-03-25T06:33:44;13.20;;;4.03;;
9823;SDS011;4951;50.778;7.196;2024-03-25T06:36:28;17.03;;;5.07;;
9823;SDS011;4951;50.778;7.196;2024-03-25T06:38:55;10.57;;;4.20;;
9823;SDS011;4951;50.778;7.196;2024-03-25T06:41:21;12.00;;;4.10;;
9823;SDS011;4951;50.778;7.196;2024-03-25T06:43:49;7.30;;;3.87;;
9823;SDS011;4951;50.778;7.196;2024-03-25T06:46:16;15.63;;;4.63;;
9823;SDS011;4951;50.778;7.196;2024-03-25T06:48:42;16.07;;;5.47;;
9823;SDS011;4951;50.778;7.196;2024-03-25T06:51:08;13.43;;;4.07;;
9823;SDS011;4951;50.778;7.196;2024-03-25T06:53:34;12.23;;;4.03;;
9823;SDS011;4951;50.778;7.196;2024-03-25T06:56:01;11.07;;;3.97;;
9823;SDS011;4951;50.778;7.196;2024-03-25T06:58:27;9.87;;;4.10;;
9823;SDS011;4951;50.778;7.196;2024-03-25T07:00:56;11.27;;;4.00;;
9823;SDS011;4951;50.778;7.196;2024-03-25T07:03:23;8.47;;;3.57;;
9823;SDS011;4951;50.778;7.196;2024-03-25T07:05:50;10.33;;;3.70;;
9823;SDS011;4951;50.778;7.196;2024-03-25T07:08:17;8.23;;;3.73;;
9823;SDS011;4951;50.778;7.196;2024-03-25T07:10:43;11.73;;;3.53;;
9823;SDS011;4951;50.778;7.196;2024-03-25T07:13:09;14.10;;;3.77;;
9823;SDS011;4951;50.778;7.196;2024-03-25T07:15:36;13.27;;;3.80;;
9823;SDS011;4951;50.778;7.196;2024-03-25T07:18:05;12.03;;;3.70;;
9823;SDS011;4951;50.778;7.196;2024-03-25T07:20:31;12.93;;;3.13;;
9823;SDS011;4951;50.778;7.196;2024-03-25T07:22:58;10.80;;;3.70;;
9823;SDS011;4951;50.778;7.196;2024-03-25T07:25:24;11.53;;;3.93;;
9823;SDS011;4951;50.778;7.196;2024-03-25T07:27:52;10.23;;;3.53;;
9823;SDS011;4951;50.778;7.196;2024-03-25T07:30:18;12.13;;;3.40;;
9823;SDS011;4951;50.778;7.196;2024-03-25T07:32:45;12.17;;;3.87;;
9823;SDS011;4951;50.778;7.196;2024-03-25T07:35:13;11.67;;;3.67;;
9823;SDS011;4951;50.778;7.196;2024-03-25T07:37:39;8.90;;;3.10;;
9823;SDS011;4951;50.778;7.196;2024-03-25T07:40:06;16.80;;;4.53;;
9823;SDS011;4951;50.778;7.196;2024-03-25T07:42:34;10.57;;;3.30;;
9823;SDS011;4951;50.778;7.196;2024-03-25T07:45:00;9.13;;;4.03;;
9823;SDS011;4951;50.778;7.196;2024-03-25T07:47:26;12.87;;;4.53;;
9823;SDS011;4951;50.778;7.196;2024-03-25T07:49:53;10.03;;;3.20;;
9823;SDS011;4951;50.778;7.196;2024-03-25T07:52:20;10.40;;;3.40;;
9823;SDS011;4951;50.778;7.196;2024-03-25T07:54:47;10.83;;;4.03;;
9823;SDS011;4951;50.778;7.196;2024-03-25T07:57:13;6.07;;;2.90;;
9823;SDS011;4951;50.778;7.196;2024-03-25T07:59:39;8.17;;;3.63;;
9823;SDS011;4951;50.778;7.196;2024-03-25T08:02:05;9.10;;;3.20;;
9823;SDS011;4951;50.778;7.196;2024-03-25T08:04:31;12.93;;;3.70;;
9823;SDS011;4951;50.778;7.196;2024-03-25T08:06:57;9.17;;;2.97;;
9823;SDS011;4951;50.778;7.196;2024-03-25T08:09:25;7.27;;;2.87;;
9823;SDS011;4951;50.778;7.196;2024-03-25T08:11:51;17.50;;;4.07;;
9823;SDS011;4951;50.778;7.196;2024-03-25T08:14:17;13.53;;;4.23;;
9823;SDS011;4951;50.778;7.196;2024-03-25T08:16:44;12.00;;;3.87;;
9823;SDS011;4951;50.778;7.196;2024-03-25T08:19:10;14.37;;;3.77;;
9823;SDS011;4951;50.778;7.196;2024-03-25T08:21:36;13.43;;;3.77;;
9823;SDS011;4951;50.778;7.196;2024-03-25T08:24:02;9.70;;;3.30;;
9823;SDS011;4951;50.778;7.196;2024-03-25T08:26:30;16.37;;;3.73;;
9823;SDS011;4951;50.778;7.196;2024-03-25T08:28:56;13.33;;;3.40;;
9823;SDS011;4951;50.778;7.196;2024-03-25T08:31:23;13.67;;;3.77;;
9823;SDS011;4951;50.778;7.196;2024-03-25T08:33:49;11.17;;;3.10;;
9823;SDS011;4951;50.778;7.196;2024-03-25T08:36:16;13.57;;;3.40;;
9823;SDS011;4951;50.778;7.196;2024-03-25T08:38:42;11.47;;;3.80;;
9823;SDS011;4951;50.778;7.196;2024-03-25T08:41:08;10.10;;;3.00;;
9823;SDS011;4951;50.778;7.196;2024-03-25T08:43:36;8.77;;;3.23;;
9823;SDS011;4951;50.778;7.196;2024-03-25T08:46:02;12.60;;;3.50;;
9823;SDS011;4951;50.778;7.196;2024-03-25T08:48:29;12.13;;;3.53;;
9823;SDS011;4951;50.778;7.196;2024-03-25T08:50:55;11.03;;;3.20;;
9823;SDS011;4951;50.778;7.196;2024-03-25T08:53:21;16.67;;;3.37;;
9823;SDS011;4951;50.778;7.196;2024-03-25T08:55:47;8.87;;;2.90;;
9823;SDS011;4951;50.778;7.196;2024-03-25T08:58:14;10.00;;;3.10;;
9823;SDS011;4951;50.778;7.196;2024-03-25T09:00:42;12.60;;;3.30;;
9823;SDS011;4951;50.778;7.196;2024-03-25T09:03:09;11.40;;;3.47;;
9823;SDS011;4951;50.778;7.196;2024-03-25T09:05:36;10.57;;;3.00;;
9823;SDS011;4951;50.778;7.196;2024-03-25T09:08:02;12.03;;;3.10;;
9823;SDS011;4951;50.778;7.196;2024-03-25T09:10:28;11.63;;;3.47;;
9823;SDS011;4951;50.778;7.196;2024-03-25T09:13:14;10.03;;;3.10;;
9823;SDS011;4951;50.778;7.196;2024-03-25T09:15:40;11.57;;;3.47;;
9823;SDS011;4951;50.778;7.196;2024-03-25T09:18:07;12.03;;;2.80;;
9823;SDS011;4951;50.778;7.196;2024-03-25T09:20:34;8.50;;;3.00;;
9823;SDS011;4951;50.778;7.196;2024-03-25T09:23:01;11.40;;;3.57;;
9823;SDS011;4951;50.778;7.196;2024-03-25T09:25:27;11.83;;;3.27;;
9823;SDS011;4951;50.778;7.196;2024-03-25T09:27:54;6.00;;;2.70;;
9823;SDS011;4951;50.778;7.196;2024-03-25T09:30:20;8.73;;;2.83;;
9823;SDS011;4951;50.778;7.196;2024-03-25T09:32:46;11.20;;;3.73;;
9823;SDS011;4951;50.778;7.196;2024-03-25T09:35:14;16.43;;;3.40;;
9823;SDS011;4951;50.778;7.196;2024-03-25T09:37:40;11.50;;;3.27;;
9823;SDS011;4951;50.778;7.196;2024-03-25T09:40:06;9.47;;;2.80;;
9823;SDS011;4951;50.778;7.196;2024-03-25T09:42:34;10.93;;;3.10;;
9823;SDS011;4951;50.778;7.196;2024-03-25T09:45:06;9.40;;;3.30;;
9823;SDS011;4951;50.778;7.196;2024-03-25T09:47:35;7.53;;;3.10;;
9823;SDS011;4951;50.778;7.196;2024-03-25T09:50:04;12.23;;;3.10;;
9823;SDS011;4951;50.778;7.196;2024-03-25T09:52:34;7.50;;;3.13;;
9823;SDS011;4951;50.778;7.196;2024-03-25T09:55:00;8.17;;;3.10;;
9823;SDS011;4951;50.778;7.196;2024-03-25T09:57:26;10.60;;;3.10;;
9823;SDS011;4951;50.778;7.196;2024-03-25T09:59:53;5.87;;;2.70;;
9823;SDS011;4951;50.778;7.196;2024-03-25T10:02:20;13.10;;;3.10;;
9823;SDS011;4951;50.778;7.196;2024-03-25T10:04:48;8.00;;;2.93;;
9823;SDS011;4951;50.778;7.196;2024-03-25T10:07:16;7.47;;;3.00;;
9823;SDS011;4951;50.778;7.196;2024-03-25T10:09:49;10.67;;;3.17;;
9823;SDS011;4951;50.778;7.196;2024-03-25T10:12:16;9.43;;;2.77;;
9823;SDS011;4951;50.778;7.196;2024-03-25T10:14:45;6.70;;;2.97;;
9823;SDS011;4951;50.778;7.196;2024-03-25T10:17:11;8.40;;;2.77;;
9823;SDS011;4951;50.778;7.196;2024-03-25T10:19:38;9.77;;;3.60;;
9823;SDS011;4951;50.778;7.196;2024-03-25T10:22:04;6.17;;;2.77;;
9823;SDS011;4951;50.778;7.196;2024-03-25T10:24:38;6.77;;;2.97;;
9823;SDS011;4951;50.778;7.196;2024-03-25T10:27:06;6.67;;;2.73;;
9823;SDS011;4951;50.778;7.196;2024-03-25T10:29:36;9.30;;;2.70;;
9823;SDS011;4951;50.778;7.196;2024-03-25T10:32:02;6.90;;;2.83;;
9823;SDS011;4951;50.778;7.196;2024-03-25T10:34:29;8.63;;;3.03;;
9823;SDS011;4951;50.778;7.196;2024-03-25T10:36:56;6.83;;;2.77;;
9823;SDS011;4951;50.778;7.196;2024-03-25T10:39:26;6.70;;;2.43;;
9823;SDS011;4951;50.778;7.196;2024-03-25T10:41:56;7.63;;;2.70;;
9823;SDS011;4951;50.778;7.196;2024-03-25T10:44:26;6.53;;;2.20;;
9823;SDS011;4951;50.778;7.196;2024-03-25T10:46:55;5.30;;;2.50;;
9823;SDS011;4951;50.778;7.196;2024-03-25T10:49:27;8.47;;;2.70;;
9823;SDS011;4951;50.778;7.196;2024-03-25T10:52:00;6.80;;;2.40;;
9823;SDS011;4951;50.778;7.196;2024-03-25T10:54:29;4.93;;;1.87;;
9823;SDS011;4951;50.778;7.196;2024-03-25T10:56:57;6.37;;;2.60;;
9823;SDS011;4951;50.778;7.196;2024-03-25T10:59:24;6.47;;;2.40;;
9823;SDS011;4951;50.778;7.196;2024-03-25T11:01:55;5.37;;;2.27;;
9823;SDS011;4951;50.778;7.196;2024-03-25T11:04:21;8.97;;;2.60;;
9823;SDS011;4951;50.778;7.196;2024-03-25T11:06:48;5.80;;;2.23;;
9823;SDS011;4951;50.778;7.196;2024-03-25T11:09:23;5.73;;;2.50;;
9823;SDS011;4951;50.778;7.196;2024-03-25T11:11:51;4.80;;;2.23;;
9823;SDS011;4951;50.778;7.196;2024-03-25T11:14:17;6.13;;;2.40;;
9823;SDS011;4951;50.778;7.196;2024-03-25T11:16:50;3.80;;;2.00;;
9823;SDS011;4951;50.778;7.196;2024-03-25T11:19:17;6.40;;;2.50;;
9823;SDS011;4951;50.778;7.196;2024-03-25T11:21:43;5.03;;;1.87;;
9823;SDS011;4951;50.778;7.196;2024-03-25T11:24:10;6.87;;;2.43;;
9823;SDS011;4951;50.778;7.196;2024-03-25T11:26:40;7.53;;;2.63;;
9823;SDS011;4951;50.778;7.196;2024-03-25T11:29:06;5.77;;;2.53;;
9823;SDS011;4951;50.778;7.196;2024-03-25T11:31:33;4.73;;;2.20;;
9823;SDS011;4951;50.778;7.196;2024-03-25T11:34:04;7.07;;;2.60;;
9823;SDS011;4951;50.778;7.196;2024-03-25T11:36:31;4.97;;;2.17;;
9823;SDS011;4951;50.778;7.196;2024-03-25T11:38:57;5.83;;;2.67;;
9823;SDS011;4951;50.778;7.196;2024-03-25T11:41:25;7.37;;;2.30;;
9823;SDS011;4951;50.778;7.196;2024-03-25T11:43:51;22.60;;;3.43;;
9823;SDS011;4951;50.778;7.196;2024-03-25T11:46:18;4.90;;;2.73;;
9823;SDS011;4951;50.778;7.196;2024-03-25T11:48:44;10.27;;;6.00;;
9823;SDS011;4951;50.778;7.196;2024-03-25T11:51:13;5.63;;;2.80;;
9823;SDS011;4951;50.778;7.196;2024-03-25T11:53:42;7.27;;;2.60;;
9823;SDS011;4951;50.778;7.196;2024-03-25T11:56:08;5.60;;;2.60;;
9823;SDS011;4951;50.778;7.196;2024-03-25T11:58:36;5.13;;;2.30;;
9823;SDS011;4951;50.778;7.196;2024-03-25T12:01:03;5.73;;;2.30;;
9823;SDS011;4951;50.778;7.196;2024-03-25T12:03:29;4.33;;;2.10;;
9823;SDS011;4951;50.778;7.196;2024-03-25T12:05:59;7.90;;;2.63;;
9823;SDS011;4951;50.778;7.196;2024-03-25T12:08:26;6.70;;;2.50;;
9823;SDS011;4951;50.778;7.196;2024-03-25T12:10:53;4.03;;;2.40;;
9823;SDS011;4951;50.778;7.196;2024-03-25T12:13:38;4.20;;;2.10;;
9823;SDS011;4951;50.778;7.196;2024-03-25T12:16:05;7.10;;;2.37;;
9823;SDS011;4951;50.778;7.196;2024-03-25T12:18:31;6.37;;;2.20;;
9823;SDS011;4951;50.778;7.196;2024-03-25T12:20:57;3.73;;;2.00;;
9823;SDS011;4951;50.778;7.196;2024-03-25T12:23:29;5.10;;;2.20;;
9823;SDS011;4951;50.778;7.196;2024-03-25T12:25:55;4.90;;;2.47;;
9823;SDS011;4951;50.778;7.196;2024-03-25T12:28:24;6.13;;;2.20;;
9823;SDS011;4951;50.778;7.196;2024-03-25T12:30:51;4.27;;;2.20;;
9823;SDS011;4951;50.778;7.196;2024-03-25T12:33:18;2.77;;;1.83;;
9823;SDS011;4951;50.778;7.196;2024-03-25T12:35:48;5.37;;;2.67;;
9823;SDS011;4951;50.778;7.196;2024-03-25T12:38:22;3.70;;;1.80;;
9823;SDS011;4951;50.778;7.196;2024-03-25T12:40:50;6.37;;;2.20;;
9823;SDS011;4951;50.778;7.196;2024-03-25T12:43:17;4.67;;;2.47;;
9823;SDS011;4951;50.778;7.196;2024-03-25T12:45:43;6.90;;;2.47;;
9823;SDS011;4951;50.778;7.196;2024-03-25T12:48:09;5.33;;;2.30;;
9823;SDS011;4951;50.778;7.196;2024-03-25T12:50:36;3.73;;;1.97;;
9823;SDS011;4951;50.778;7.196;2024-03-25T12:53:03;5.90;;;1.87;;
9823;SDS011;4951;50.778;7.196;2024-03-25T12:55:29;3.77;;;2.03;;
9823;SDS011;4951;50.778;7.196;2024-03-25T12:57:56;3.60;;;1.90;;
9823;SDS011;4951;50.778;7.196;2024-03-25T13:00:23;3.40;;;1.83;;
9823;SDS011;4951;50.778;7.196;2024-03-25T13:02:49;5.27;;;2.20;;
9823;SDS011;4951;50.778;7.196;2024-03-25T13:05:15;4.17;;;2.10;;
9823;SDS011;4951;50.778;7.196;2024-03-25T13:07:41;3.90;;;1.80;;
9823;SDS011;4951;50.778;7.196;2024-03-25T13:10:07;4.17;;;1.97;;
9823;SDS011;4951;50.778;7.196;2024-03-25T13:12:33;4.43;;;2.00;;
9823;SDS011;4951;50.778;7.196;2024-03-25T13:15:01;3.70;;;1.97;;
9823;SDS011;4951;50.778;7.196;2024-03-25T13:17:27;3.07;;;1.73;;
9823;SDS011;4951;50.778;7.196;2024-03-25T13:19:53;3.30;;;1.80;;
9823;SDS011;4951;50.778;7.196;2024-03-25T13:22:19;2.73;;;1.63;;
9823;SDS011;4951;50.778;7.196;2024-03-25T13:24:46;4.00;;;2.00;;
9823;SDS011;4951;50.778;7.196;2024-03-25T13:27:12;5.07;;;1.90;;
9823;SDS011;4951;50.778;7.196;2024-03-25T13:29:38;4.10;;;1.60;;
9823;SDS011;4951;50.778;7.196;2024-03-25T13:32:05;4.50;;;2.10;;
9823;SDS011;4951;50.778;7.196;2024-03-25T13:34:31;4.47;;;1.70;;
9823;SDS011;4951;50.778;7.196;2024-03-25T13:36:57;4.50;;;1.80;;
9823;SDS011;4951;50.778;7.196;2024-03-25T13:39:23;3.40;;;1.53;;
9823;SDS011;4951;50.778;7.196;2024-03-25T13:41:50;3.47;;;1.80;;
9823;SDS011;4951;50.778;7.196;2024-03-25T13:44:16;4.90;;;1.75;;
9823;SDS011;4951;50.778;7.196;2024-03-25T13:46:42;4.07;;;1.90;;
9823;SDS011;4951;50.778;7.196;2024-03-25T13:49:09;5.50;;;1.85;;
9823;SDS011;4951;50.778;7.196;2024-03-25T13:51:36;4.32;;;1.80;;
9823;SDS011;4951;50.778;7.196;2024-03-25T13:54:02;4.22;;;1.83;;
9823;SDS011;4951;50.778;7.196;2024-03-25T13:56:28;3.53;;;1.80;;
9823;SDS011;4951;50.778;7.196;2024-03-25T13:58:54;3.63;;;1.65;;
9823;SDS011;4951;50.778;7.196;2024-03-25T14:01:20;4.30;;;2.00;;
9823;SDS011;4951;50.778;7.196;2024-03-25T14:03:46;2.92;;;1.90;;
9823;SDS011;4951;50.778;7.196;2024-03-25T14:06:14;4.68;;;1.88;;
9823;SDS011;4951;50.778;7.196;2024-03-25T14:08:40;4.13;;;1.90;;
9823;SDS011;4951;50.778;7.196;2024-03-25T14:11:06;3.05;;;2.10;;
9823;SDS011;4951;50.778;7.196;2024-03-25T14:13:33;3.05;;;1.73;;
9823;SDS011;4951;50.778;7.196;2024-03-25T14:15:59;2.90;;;1.52;;
9823;SDS011;4951;50.778;7.196;2024-03-25T14:18:26;4.43;;;1.90;;
9823;SDS011;4951;50.778;7.196;2024-03-25T14:20:52;2.67;;;1.65;;
9823;SDS011;4951;50.778;7.196;2024-03-25T14:23:20;3.83;;;1.80;;
9823;SDS011;4951;50.778;7.196;2024-03-25T14:25:46;4.05;;;2.17;;
9823;SDS011;4951;50.778;7.196;2024-03-25T14:28:12;4.18;;;1.92;;
9823;SDS011;4951;50.778;7.196;2024-03-25T14:30:38;4.43;;;2.03;;
9823;SDS011;4951;50.778;7.196;2024-03-25T14:33:05;4.75;;;2.22;;
9823;SDS011;4951;50.778;7.196;2024-03-25T14:35:31;6.38;;;2.53;;
9823;SDS011;4951;50.778;7.196;2024-03-25T14:37:57;2.30;;;1.63;;
9823;SDS011;4951;50.778;7.196;2024-03-25T14:40:25;4.07;;;2.25;;
9823;SDS011;4951;50.778;7.196;2024-03-25T14:42:51;3.78;;;1.77;;
9823;SDS011;4951;50.778;7.196;2024-03-25T14:45:18;4.53;;;1.90;;
9823;SDS011;4951;50.778;7.196;2024-03-25T14:47:44;3.35;;;1.70;;
9823;SDS011;4951;50.778;7.196;2024-03-25T14:50:10;3.85;;;2.08;;
9823;SDS011;4951;50.778;7.196;2024-03-25T14:52:36;3.97;;;1.85;;
9823;SDS011;4951;50.778;7.196;2024-03-25T14:55:03;4.40;;;2.03;;
9823;SDS011;4951;50.778;7.196;2024-03-25T14:57:31;2.90;;;1.85;;
9823;SDS011;4951;50.778;7.196;2024-03-25T14:59:57;2.90;;;1.55;;
9823;SDS011;4951;50.778;7.196;2024-03-25T15:02:23;3.30;;;2.00;;
9823;SDS011;4951;50.778;7.196;2024-03-25T15:04:49;4.93;;;2.00;;
9823;SDS011;4951;50.778;7.196;2024-03-25T15:07:15;4.55;;;1.90;;